Terminal Aerodrome Forecast
Issued by NWS

Home | Current Version | Previous Version | Text Only | Print | Product List | Glossary On
Versions: 1 2 3 4 5 6 7 8 9 10 11 12 13 14 15 16 17 18 19 20 21 22 23 24 25 26 27 28
000
FTUS46 KPDT 271300 AAB
TAFALW
TAF AMD
KALW 271301Z 2713/2812 VRB03KT 1/4SM FG VV002
      TEMPO 2713/2716 3/4SM BR
     FM272000 20004KT 2SM BR OVC005
     FM280000 25003KT 1SM BR OVC003
     FM280300 16004KT 3/4SM BR BKN003 OVC035=

USA.gov is the U.S. government's official web portal to all federal, state and local government web resources and services.